Time;durP1;ratioP1;P1;durP2;ratioP2;P2;SDS_P1;SDS_P2;PMS_P1;PMS_P2;Temp;Humidity;BMP_temperature;BMP_pressure;BME280_temperature;BME280_humidity;BME280_pressure;Samples;Min_cycle;Max_cycle;Signal;HPM_P1;HPM_P2
2022/11/05 00:09:30;;;;;;;32.88;20.38;;;;;;;;;;5054000;28;20032;-67
2022/11/05 00:17:30;;;;;;;34.05;19.95;;;;;;;;;;5054497;28;20134;-65
2022/11/05 00:19:56;;;;;;;33.47;20.80;;;;;;;;;;5054403;28;20017;-66
2022/11/05 00:25:13;;;;;;;37.40;21.98;;;;;;;;;;5054177;28;20083;-66
2022/11/05 00:27:39;;;;;;;35.17;19.45;;;;;;;;;;5036892;28;20041;-68
2022/11/05 00:30:06;;;;;;;38.05;22.98;;;;;;;;;;5036295;28;20021;-66
2022/11/05 00:32:32;;;;;;;35.53;21.48;;;;;;;;;;5054579;28;20017;-66
2022/11/05 00:34:58;;;;;;;34.88;19.55;;;;;;;;;;5053306;28;20017;-66
2022/11/05 00:37:26;;;;;;;34.75;20.75;;;;;;;;;;5053907;28;20096;-66
2022/11/05 00:39:52;;;;;;;37.38;20.90;;;;;;;;;;5053865;28;20435;-65
2022/11/05 00:45:03;;;;;;;36.45;20.98;;;;;;;;;;5052930;28;20091;-66
2022/11/05 00:50:14;;;;;;;33.58;20.42;;;;;;;;;;5053679;28;20039;-66
2022/11/05 00:52:56;;;;;;;33.53;20.13;;;;;;;;;;5053601;28;20025;-67
2022/11/05 00:55:24;;;;;;;35.15;24.15;;;;;;;;;;5052956;28;20664;-65
2022/11/05 00:57:51;;;;;;;35.08;21.33;;;;;;;;;;5052298;28;20053;-66
2022/11/05 01:00:17;;;;;;;33.38;20.83;;;;;;;;;;5053116;28;20033;-66
2022/11/05 01:02:43;;;;;;;35.05;22.25;;;;;;;;;;5035336;28;20552;-66
2022/11/05 01:05:09;;;;;;;37.95;21.95;;;;;;;;;;5052061;28;20053;-66
2022/11/05 01:07:35;;;;;;;38.20;24.80;;;;;;;;;;5053198;28;20460;-66
2022/11/05 01:10:01;;;;;;;45.92;23.73;;;;;;;;;;5052959;28;20021;-66
2022/11/05 01:12:27;;;;;;;40.15;23.42;;;;;;;;;;5052998;28;20044;-67
2022/11/05 01:14:53;;;;;;;37.45;21.05;;;;;;;;;;5034447;28;20481;-66
2022/11/05 01:17:19;;;;;;;35.35;21.52;;;;;;;;;;5053046;28;20025;-66
2022/11/05 01:19:45;;;;;;;36.45;23.10;;;;;;;;;;5035200;28;20396;-66
2022/11/05 01:22:12;;;;;;;37.63;23.95;;;;;;;;;;5034951;28;20174;-65
2022/11/05 01:24:38;;;;;;;36.58;23.05;;;;;;;;;;5034345;28;20025;-65
2022/11/05 01:27:04;;;;;;;41.33;25.05;;;;;;;;;;5052939;28;20434;-65
2022/11/05 01:29:30;;;;;;;37.78;22.25;;;;;;;;;;5034851;28;20021;-67
2022/11/05 01:31:56;;;;;;;38.70;22.17;;;;;;;;;;5034744;28;20116;-67
2022/11/05 01:34:22;;;;;;;39.15;22.67;;;;;;;;;;5034216;28;20029;-67
2022/11/05 01:36:48;;;;;;;41.58;24.90;;;;;;;;;;5052667;28;20041;-67
2022/11/05 01:39:14;;;;;;;39.25;24.55;;;;;;;;;;5052341;28;20029;-67
2022/11/05 01:41:40;;;;;;;37.60;24.75;;;;;;;;;;5052255;28;20057;-67
2022/11/05 01:44:26;;;;;;;36.10;22.05;;;;;;;;;;5033898;28;20017;-67
2022/11/05 01:46:52;;;;;;;37.65;22.65;;;;;;;;;;5032588;28;20108;-67
2022/11/05 01:49:44;;;;;;;36.33;21.70;;;;;;;;;;5052272;28;20087;-67
2022/11/05 01:52:10;;;;;;;35.45;23.10;;;;;;;;;;5050249;28;20115;-68
2022/11/05 01:54:36;;;;;;;34.88;21.90;;;;;;;;;;5051507;28;20471;-66
2022/11/05 01:57:06;;;;;;;38.47;22.63;;;;;;;;;;5034408;28;20076;-65
2022/11/05 01:59:34;;;;;;;33.65;21.55;;;;;;;;;;5034153;28;20025;-67
2022/11/05 02:02:00;;;;;;;;;;;;;;;;;;5034489;28;20036;-67
2022/11/05 02:04:37;;;;;;;38.30;22.92;;;;;;;;;;5033409;28;19905;-66
2022/11/05 02:07:05;;;;;;;38.28;24.00;;;;;;;;;;5052017;28;20028;-67
2022/11/05 02:09:50;;;;;;;35.10;21.80;;;;;;;;;;5033732;28;20025;-66
2022/11/05 02:12:17;;;;;;;37.80;23.15;;;;;;;;;;5051839;28;20029;-64
2022/11/05 02:14:43;;;;;;;42.90;26.15;;;;;;;;;;5051117;28;20032;-66
2022/11/05 02:17:13;;;;;;;35.60;22.38;;;;;;;;;;5051725;28;20394;-65
2022/11/05 02:19:48;;;;;;;40.63;22.38;;;;;;;;;;5033811;28;20481;-65
2022/11/05 02:22:20;;;;;;;37.08;22.23;;;;;;;;;;5051880;28;20055;-66
2022/11/05 02:25:00;;;;;;;38.72;23.33;;;;;;;;;;5051104;28;20071;-66
2022/11/05 02:27:45;;;;;;;35.45;23.40;;;;;;;;;;5051625;28;20025;-66
2022/11/05 02:30:29;;;;;;;38.22;22.70;;;;;;;;;;5051519;28;20033;-66
2022/11/05 02:32:55;;;;;;;35.58;22.83;;;;;;;;;;5051808;28;20119;-65
2022/11/05 02:35:21;;;;;;;35.15;22.42;;;;;;;;;;5051347;28;20071;-65
2022/11/05 02:37:54;;;;;;;33.17;21.77;;;;;;;;;;5051338;28;20029;-66
2022/11/05 02:40:28;;;;;;;31.90;22.25;;;;;;;;;;5051133;28;20107;-67
2022/11/05 02:43:03;;;;;;;35.55;22.85;;;;;;;;;;5033175;28;20057;-67
2022/11/05 02:45:48;;;;;;;32.20;21.73;;;;;;;;;;5033420;28;20021;-67
2022/11/05 02:48:25;;;;;;;35.15;21.63;;;;;;;;;;5051194;28;20025;-66
2022/11/05 02:51:03;;;;;;;35.83;21.63;;;;;;;;;;5051244;28;20024;-66
2022/11/05 02:53:45;;;;;;;32.55;21.15;;;;;;;;;;5032585;28;20067;-68
2022/11/05 02:56:15;;;;;;;35.08;22.27;;;;;;;;;;5033260;28;20029;-67
2022/11/05 02:58:41;;;;;;;36.17;22.38;;;;;;;;;;5051137;28;20044;-68
2022/11/05 03:01:09;;;;;;;34.78;24.38;;;;;;;;;;5032936;28;20464;-68
2022/11/05 03:03:37;;;;;;;36.45;22.00;;;;;;;;;;5050157;28;20029;-66
2022/11/05 03:06:26;;;;;;;36.55;22.50;;;;;;;;;;5050566;28;20048;-66
2022/11/05 03:09:04;;;;;;;33.92;21.33;;;;;;;;;;5031133;28;20331;-65
2022/11/05 03:11:32;;;;;;;35.67;21.92;;;;;;;;;;5050966;28;20162;-66
2022/11/05 03:14:02;;;;;;;36.45;23.10;;;;;;;;;;5032592;28;20501;-66
2022/11/05 03:16:38;;;;;;;34.67;22.45;;;;;;;;;;5033434;28;20028;-67
2022/11/05 03:19:05;;;;;;;34.65;22.27;;;;;;;;;;5051197;28;20021;-64
2022/11/05 03:21:44;;;;;;;34.63;23.02;;;;;;;;;;5050268;28;20394;-66
2022/11/05 03:24:14;;;;;;;37.53;22.30;;;;;;;;;;5049635;28;20093;-67
2022/11/05 03:26:49;;;;;;;41.75;23.10;;;;;;;;;;5050297;28;20044;-67
2022/11/05 03:29:23;;;;;;;35.10;23.52;;;;;;;;;;5049494;28;20381;-66
2022/11/05 03:31:51;;;;;;;37.38;22.88;;;;;;;;;;5032812;28;20036;-67
2022/11/05 03:34:19;;;;;;;34.58;23.05;;;;;;;;;;5031785;28;20040;-66
2022/11/05 03:36:47;;;;;;;38.10;23.37;;;;;;;;;;5032755;28;20028;-66
2022/11/05 03:39:17;;;;;;;37.83;25.50;;;;;;;;;;5050281;28;20581;-67
2022/11/05 03:41:44;;;;;;;40.67;24.85;;;;;;;;;;5050029;28;20552;-66
2022/11/05 03:44:12;;;;;;;39.03;24.58;;;;;;;;;;5049412;28;20028;-66
2022/11/05 03:46:41;;;;;;;36.83;24.48;;;;;;;;;;5049854;28;20017;-65
2022/11/05 03:49:10;;;;;;;35.42;22.73;;;;;;;;;;5049915;28;20032;-67
2022/11/05 03:51:41;;;;;;;37.72;25.15;;;;;;;;;;5050007;28;20465;-65
2022/11/05 03:54:07;;;;;;;37.28;24.98;;;;;;;;;;5049289;28;20029;-67
2022/11/05 03:56:39;;;;;;;39.03;24.95;;;;;;;;;;5049930;28;20025;-67
2022/11/05 03:59:07;;;;;;;37.90;25.60;;;;;;;;;;5049927;28;20075;-66
2022/11/05 04:01:34;;;;;;;40.28;25.25;;;;;;;;;;5050075;28;20397;-66
2022/11/05 04:04:00;;;;;;;39.47;26.90;;;;;;;;;;5049322;28;20029;-66
2022/11/05 04:14:40;;;;;;;39.65;24.08;;;;;;;;;;5029483;28;20095;-67
2022/11/05 04:17:08;;;;;;;35.50;24.85;;;;;;;;;;5029703;28;20462;-68
2022/11/05 04:25:15;;;;;;;39.80;24.10;;;;;;;;;;5029678;28;20516;-67
2022/11/05 04:27:41;;;;;;;39.13;26.05;;;;;;;;;;5029950;28;20474;-66
2022/11/05 04:30:23;;;;;;;39.30;26.92;;;;;;;;;;5029704;28;20041;-67
2022/11/05 04:32:54;;;;;;;45.30;24.98;;;;;;;;;;5029737;28;20087;-67
2022/11/05 04:35:20;;;;;;;44.13;28.10;;;;;;;;;;5028108;28;20040;-66
2022/11/05 04:37:46;;;;;;;37.00;25.45;;;;;;;;;;5029003;28;20022;-66
2022/11/05 04:40:12;;;;;;;38.97;26.77;;;;;;;;;;5030584;28;20033;-67
2022/11/05 04:42:38;;;;;;;37.00;24.27;;;;;;;;;;5048407;28;20028;-66
2022/11/05 04:45:04;;;;;;;36.78;26.27;;;;;;;;;;5072889;28;20021;-65
2022/11/05 04:47:30;;;;;;;38.95;24.40;;;;;;;;;;5073513;28;20481;-65
2022/11/05 04:49:56;;;;;;;40.35;25.85;;;;;;;;;;5073393;28;20082;-66
2022/11/05 04:52:22;;;;;;;37.38;24.83;;;;;;;;;;5073382;28;20376;-66
2022/11/05 04:54:48;;;;;;;41.15;26.42;;;;;;;;;;5072581;28;20143;-67
2022/11/05 04:57:14;;;;;;;40.25;27.25;;;;;;;;;;5073399;28;20033;-66
2022/11/05 04:59:40;;;;;;;42.75;24.90;;;;;;;;;;5073153;28;20107;-69
2022/11/05 05:02:06;;;;;;;45.13;25.25;;;;;;;;;;5055545;28;20029;-67
2022/11/05 05:04:32;;;;;;;51.08;27.70;;;;;;;;;;5048396;28;20028;-66
2022/11/05 05:06:58;;;;;;;67.68;28.90;;;;;;;;;;5056639;28;20020;-67
2022/11/05 05:09:24;;;;;;;73.82;29.30;;;;;;;;;;5063790;28;20040;-67
2022/11/05 05:11:50;;;;;;;144.45;32.85;;;;;;;;;;5089470;22;20131;-63
2022/11/05 05:14:16;;;;;;;80.20;28.75;;;;;;;;;;5069288;28;20027;-60
2022/11/05 05:16:42;;;;;;;92.72;30.08;;;;;;;;;;5094405;28;20028;-63
2022/11/05 05:19:08;;;;;;;76.10;26.95;;;;;;;;;;5094666;28;20108;-63
2022/11/05 05:21:37;;;;;;;78.90;28.27;;;;;;;;;;5090491;28;20024;-63
2022/11/05 05:24:03;;;;;;;79.90;30.63;;;;;;;;;;5073209;28;20036;-62
2022/11/05 05:26:29;;;;;;;71.53;29.33;;;;;;;;;;5073841;28;20115;-63
2022/11/05 05:28:55;;;;;;;80.53;31.52;;;;;;;;;;5073760;28;20100;-62
2022/11/05 05:31:21;;;;;;;78.10;30.60;;;;;;;;;;5073735;28;20476;-63
2022/11/05 05:33:47;;;;;;;81.63;30.50;;;;;;;;;;5072925;28;20417;-63
2022/11/05 05:36:13;;;;;;;80.50;30.60;;;;;;;;;;5073086;28;20516;-63
2022/11/05 05:38:39;;;;;;;67.78;30.23;;;;;;;;;;5059486;28;20054;-63
2022/11/05 05:41:05;;;;;;;106.38;32.45;;;;;;;;;;5093721;28;20016;-63
2022/11/05 05:43:32;;;;;;;67.57;31.67;;;;;;;;;;5075213;28;20540;-62
2022/11/05 05:46:01;;;;;;;63.78;32.63;;;;;;;;;;5093822;28;20020;-61
2022/11/05 05:48:27;;;;;;;94.68;34.80;;;;;;;;;;5075682;28;20024;-63
2022/11/05 05:50:53;;;;;;;54.67;32.00;;;;;;;;;;5092720;28;20017;-61
2022/11/05 05:53:19;;;;;;;63.28;32.85;;;;;;;;;;5093149;28;20086;-63
2022/11/05 05:55:45;;;;;;;54.88;32.33;;;;;;;;;;5093868;28;20381;-63
2022/11/05 05:58:11;;;;;;;56.42;32.30;;;;;;;;;;5094026;28;20466;-62
2022/11/05 06:00:37;;;;;;;48.83;29.30;;;;;;;;;;5075442;28;20119;-61
2022/11/05 06:03:05;;;;;;;49.72;30.85;;;;;;;;;;5093027;28;20032;-63
2022/11/05 06:05:31;;;;;;;45.40;30.63;;;;;;;;;;5072230;28;20020;-63
2022/11/05 06:07:57;;;;;;;42.78;27.58;;;;;;;;;;5073389;28;20020;-63
2022/11/05 06:10:23;;;;;;;45.55;29.08;;;;;;;;;;5073011;28;20020;-61
2022/11/05 06:12:49;;;;;;;44.45;29.58;;;;;;;;;;5072887;28;20029;-63
2022/11/05 06:15:16;;;;;;;41.03;28.58;;;;;;;;;;5071713;28;20052;-62
2022/11/05 06:17:45;;;;;;;43.90;28.48;;;;;;;;;;5072802;28;20029;-63
2022/11/05 06:20:11;;;;;;;41.45;27.77;;;;;;;;;;5054758;28;20024;-62
2022/11/05 06:22:37;;;;;;;44.42;28.65;;;;;;;;;;5054743;28;20066;-62
2022/11/05 06:25:04;;;;;;;47.92;28.50;;;;;;;;;;5054158;28;20108;-63
2022/11/05 06:27:30;;;;;;;40.17;27.33;;;;;;;;;;5054908;28;20032;-62
2022/11/05 06:29:56;;;;;;;44.92;28.20;;;;;;;;;;5072786;28;20024;-63
2022/11/05 06:32:22;;;;;;;41.28;28.88;;;;;;;;;;5072425;28;20468;-61
2022/11/05 06:34:48;;;;;;;46.83;28.52;;;;;;;;;;5053782;28;20028;-61
2022/11/05 06:37:14;;;;;;;41.10;29.73;;;;;;;;;;5072746;28;20036;-63
2022/11/05 06:39:40;;;;;;;40.58;27.92;;;;;;;;;;5075601;28;20031;-63
2022/11/05 06:42:06;;;;;;;40.20;27.05;;;;;;;;;;5092469;28;20098;-63
2022/11/05 06:44:32;;;;;;;46.13;29.88;;;;;;;;;;5073758;28;20488;-63
2022/11/05 06:46:59;;;;;;;45.00;28.75;;;;;;;;;;5092478;28;20031;-63
2022/11/05 06:49:25;;;;;;;52.72;30.05;;;;;;;;;;5092774;28;20371;-61
2022/11/05 06:51:51;;;;;;;45.22;28.98;;;;;;;;;;5092309;28;20059;-63
2022/11/05 06:54:17;;;;;;;53.75;31.70;;;;;;;;;;5091828;28;20108;-58
2022/11/05 06:56:43;;;;;;;49.53;29.65;;;;;;;;;;5092150;28;20442;-60
2022/11/05 06:59:09;;;;;;;46.75;28.80;;;;;;;;;;5092428;28;20028;-61
2022/11/05 07:01:36;;;;;;;54.63;32.35;;;;;;;;;;5074180;28;20035;-61
2022/11/05 07:04:02;;;;;;;46.97;29.42;;;;;;;;;;5073336;28;20487;-62
2022/11/05 07:06:28;;;;;;;49.13;30.30;;;;;;;;;;5092625;28;20119;-61
2022/11/05 07:08:54;;;;;;;54.75;33.63;;;;;;;;;;5074326;28;20115;-64
2022/11/05 07:11:20;;;;;;;56.63;31.13;;;;;;;;;;5092464;28;20032;-62
2022/11/05 07:13:46;;;;;;;85.68;32.08;;;;;;;;;;5091811;28;20027;-62
2022/11/05 07:16:12;;;;;;;109.68;32.03;;;;;;;;;;5091966;28;20027;-58
2022/11/05 07:18:38;;;;;;;98.93;31.88;;;;;;;;;;5092278;28;20024;-62
2022/11/05 07:21:04;;;;;;;125.43;35.00;;;;;;;;;;5073755;28;20510;-60
2022/11/05 07:23:30;;;;;;;82.63;32.30;;;;;;;;;;5091198;28;20381;-59
2022/11/05 07:25:56;;;;;;;71.00;31.20;;;;;;;;;;5091993;28;20069;-61
2022/11/05 07:28:22;;;;;;;95.95;34.08;;;;;;;;;;5073742;28;20372;-62
2022/11/05 07:30:48;;;;;;;100.50;35.85;;;;;;;;;;5073194;28;20434;-62
2022/11/05 07:33:14;;;;;;;94.40;33.10;;;;;;;;;;5090745;28;20028;-62
2022/11/05 07:35:40;;;;;;;74.25;31.75;;;;;;;;;;5091712;28;20106;-62
2022/11/05 07:38:06;;;;;;;83.43;31.35;;;;;;;;;;5073697;28;20100;-59
2022/11/05 07:40:32;;;;;;;70.55;31.98;;;;;;;;;;5091050;28;20028;-62
2022/11/05 07:42:59;;;;;;;75.93;33.50;;;;;;;;;;5073760;28;20028;-62
2022/11/05 07:45:25;;;;;;;67.18;29.65;;;;;;;;;;5073031;28;20027;-62
2022/11/05 07:47:53;;;;;;;67.78;32.20;;;;;;;;;;5091352;28;20016;-63
2022/11/05 07:50:20;;;;;;;51.88;32.08;;;;;;;;;;5090383;28;20024;-61
2022/11/05 07:52:49;;;;;;;69.28;32.83;;;;;;;;;;5073314;28;20031;-57
2022/11/05 07:55:15;;;;;;;52.30;30.20;;;;;;;;;;5090779;28;20024;-62
2022/11/05 07:57:42;;;;;;;63.83;30.30;;;;;;;;;;5073645;28;20020;-56
2022/11/05 08:00:10;;;;;;;62.92;33.42;;;;;;;;;;5091617;28;20032;-57
2022/11/05 08:02:35;;;;;;;58.95;33.58;;;;;;;;;;5091381;28;20518;-58
2022/11/05 08:05:01;;;;;;;56.03;34.40;;;;;;;;;;5091385;28;20124;-60
2022/11/05 08:07:27;;;;;;;60.33;31.38;;;;;;;;;;5080759;28;20472;-61
2022/11/05 08:09:53;;;;;;;52.38;31.35;;;;;;;;;;5071729;28;20066;-57
2022/11/05 08:12:19;;;;;;;52.83;30.58;;;;;;;;;;5071564;28;20040;-60
2022/11/05 08:14:45;;;;;;;63.00;35.03;;;;;;;;;;5072265;28;20511;-61
2022/11/05 08:17:11;;;;;;;57.65;35.72;;;;;;;;;;5075492;28;20029;-61
2022/11/05 08:19:37;;;;;;;63.58;34.67;;;;;;;;;;5075672;28;20035;-57
2022/11/05 08:22:03;;;;;;;54.60;35.42;;;;;;;;;;5075232;28;20117;-59
2022/11/05 08:24:29;;;;;;;52.53;34.88;;;;;;;;;;5057033;28;20020;-61
2022/11/05 08:26:55;;;;;;;52.13;31.75;;;;;;;;;;5075323;28;20025;-60
2022/11/05 08:29:21;;;;;;;50.08;31.10;;;;;;;;;;5075263;28;20082;-60
2022/11/05 08:31:47;;;;;;;46.53;30.63;;;;;;;;;;5057261;28;20067;-64
2022/11/05 08:34:13;;;;;;;47.22;31.58;;;;;;;;;;5074579;28;20473;-60
2022/11/05 08:36:42;;;;;;;44.63;27.50;;;;;;;;;;5075496;28;20027;-65
2022/11/05 08:39:08;;;;;;;39.97;27.23;;;;;;;;;;5074989;28;20027;-63
2022/11/05 08:41:34;;;;;;;40.40;26.70;;;;;;;;;;5075144;28;20033;-59
2022/11/05 08:44:00;;;;;;;40.33;27.85;;;;;;;;;;5074157;28;20021;-58
2022/11/05 08:46:26;;;;;;;39.90;29.17;;;;;;;;;;5074965;28;20063;-55
2022/11/05 08:48:52;;;;;;;38.83;26.88;;;;;;;;;;5074714;28;20073;-60
2022/11/05 08:51:18;;;;;;;37.17;25.17;;;;;;;;;;5074765;28;20028;-61
2022/11/05 08:53:44;;;;;;;36.78;24.35;;;;;;;;;;5073946;28;20021;-56
2022/11/05 08:56:10;;;;;;;34.65;24.02;;;;;;;;;;5075750;28;20145;-62
2022/11/05 08:58:36;;;;;;;34.95;24.70;;;;;;;;;;5076837;28;20473;-59
2022/11/05 09:01:04;;;;;;;35.53;24.75;;;;;;;;;;5056762;28;20115;-59
2022/11/05 09:03:30;;;;;;;33.20;24.13;;;;;;;;;;5056307;28;20038;-58
2022/11/05 09:05:56;;;;;;;37.35;25.08;;;;;;;;;;5074838;28;20044;-55
2022/11/05 09:08:22;;;;;;;39.72;24.08;;;;;;;;;;5074177;28;20068;-61
2022/11/05 09:10:48;;;;;;;33.80;23.50;;;;;;;;;;5074151;28;20020;-59
2022/11/05 09:13:14;;;;;;;35.20;22.98;;;;;;;;;;5073704;28;20025;-56
2022/11/05 09:15:40;;;;;;;34.33;24.83;;;;;;;;;;5056293;28;20053;-61
2022/11/05 09:18:06;;;;;;;31.73;20.92;;;;;;;;;;5074421;28;20020;-54
2022/11/05 09:20:32;;;;;;;31.20;21.02;;;;;;;;;;5074589;28;20361;-56
2022/11/05 09:22:59;;;;;;;31.50;21.55;;;;;;;;;;5073995;28;20064;-61
2022/11/05 09:25:25;;;;;;;39.50;20.17;;;;;;;;;;5054878;28;20066;-58
2022/11/05 09:27:51;;;;;;;29.00;20.20;;;;;;;;;;5072420;28;20727;-62
2022/11/05 09:30:17;;;;;;;32.88;20.83;;;;;;;;;;5055900;28;20119;-60
2022/11/05 09:32:43;;;;;;;30.33;21.13;;;;;;;;;;5056092;28;20032;-59
2022/11/05 09:35:09;;;;;;;32.15;21.33;;;;;;;;;;5073500;28;20025;-59
2022/11/05 09:37:36;;;;;;;28.38;19.35;;;;;;;;;;5073704;28;20024;-61
2022/11/05 09:40:02;;;;;;;30.40;20.73;;;;;;;;;;5073199;28;20070;-56
2022/11/05 09:42:31;;;;;;;29.58;20.10;;;;;;;;;;5056140;28;20058;-57
2022/11/05 09:45:17;;;;;;;34.45;19.98;;;;;;;;;;5073189;28;20020;-58
2022/11/05 09:47:46;;;;;;;27.95;19.38;;;;;;;;;;5073684;28;20029;-57
2022/11/05 09:50:11;;;;;;;;;;;;;;;;;;5074323;28;20017;-57
2022/11/05 09:52:37;;;;;;;27.45;18.80;;;;;;;;;;5073662;28;20371;-57
2022/11/05 09:55:06;;;;;;;30.45;18.40;;;;;;;;;;5073089;28;20024;-64
2022/11/05 09:57:36;;;;;;;28.13;18.40;;;;;;;;;;5055771;28;20399;-61
2022/11/05 10:00:03;;;;;;;26.08;17.17;;;;;;;;;;5055650;28;20036;-59
2022/11/05 10:02:32;;;;;;;27.77;17.27;;;;;;;;;;5073358;28;20020;-60
2022/11/05 10:05:07;;;;;;;25.60;16.00;;;;;;;;;;5072857;28;20074;-63
2022/11/05 10:07:37;;;;;;;24.23;16.23;;;;;;;;;;5073216;28;20021;-59
2022/11/05 10:10:05;;;;;;;26.70;16.00;;;;;;;;;;5073394;28;20411;-60
2022/11/05 10:12:34;;;;;;;27.08;17.63;;;;;;;;;;5073051;28;20040;-64
2022/11/05 10:15:04;;;;;;;26.88;14.95;;;;;;;;;;5072491;28;20492;-62
2022/11/05 10:17:31;;;;;;;27.40;16.67;;;;;;;;;;5072770;28;20107;-59
2022/11/05 10:20:00;;;;;;;28.23;15.32;;;;;;;;;;5072645;28;20051;-63
2022/11/05 10:22:26;;;;;;;24.65;15.48;;;;;;;;;;5072562;28;20485;-61
2022/11/05 10:24:53;;;;;;;24.30;15.77;;;;;;;;;;5072237;28;20502;-58
2022/11/05 10:27:22;;;;;;;25.40;15.52;;;;;;;;;;5072902;28;20108;-60
2022/11/05 10:29:49;;;;;;;27.05;16.05;;;;;;;;;;5072811;28;20091;-59
2022/11/05 10:32:32;;;;;;;25.45;16.85;;;;;;;;;;5072635;28;20029;-62
2022/11/05 10:34:59;;;;;;;27.08;15.57;;;;;;;;;;5071690;28;20028;-63
2022/11/05 10:37:26;;;;;;;23.40;14.57;;;;;;;;;;5069800;28;20025;-60
2022/11/05 10:39:52;;;;;;;28.58;15.35;;;;;;;;;;5050717;28;20027;-61
2022/11/05 10:42:30;;;;;;;23.30;14.27;;;;;;;;;;5072404;28;20025;-60
2022/11/05 10:45:08;;;;;;;24.05;14.13;;;;;;;;;;4353425;28;9999790;-64
2022/11/05 10:47:37;;;;;;;22.33;13.50;;;;;;;;;;5065587;28;20033;-61
2022/11/05 10:50:06;;;;;;;21.08;12.30;;;;;;;;;;5063620;28;20510;-59
2022/11/05 10:52:35;;;;;;;24.23;13.45;;;;;;;;;;5050317;28;20082;-62
2022/11/05 10:55:02;;;;;;;21.15;13.18;;;;;;;;;;5030824;28;20036;-61
2022/11/05 10:57:36;;;;;;;21.45;14.32;;;;;;;;;;5048870;28;20060;-63
2022/11/05 11:00:14;;;;;;;24.88;14.95;;;;;;;;;;5050283;28;20028;-63
2022/11/05 11:02:43;;;;;;;23.42;14.68;;;;;;;;;;5065490;28;20130;-66
2022/11/05 11:05:09;;;;;;;;;;;;;;;;;;5070178;28;20487;-62
2022/11/05 11:07:35;;;;;;;20.15;13.02;;;;;;;;;;5060228;28;19916;-63
2022/11/05 11:10:01;;;;;;;21.08;14.10;;;;;;;;;;5051878;28;20021;-60
2022/11/05 11:12:37;;;;;;;18.40;12.45;;;;;;;;;;5070024;22;20048;-65
2022/11/05 11:15:12;;;;;;;20.63;13.32;;;;;;;;;;5071537;28;20104;-65
2022/11/05 11:17:38;;;;;;;20.73;13.55;;;;;;;;;;5072296;28;20027;-65
2022/11/05 11:20:22;;;;;;;20.63;13.60;;;;;;;;;;5054005;28;20400;-65
2022/11/05 11:23:07;;;;;;;21.05;13.32;;;;;;;;;;5053659;28;20031;-64
2022/11/05 11:25:39;;;;;;;22.35;13.70;;;;;;;;;;5054301;28;20108;-65
2022/11/05 11:28:06;;;;;;;22.50;13.65;;;;;;;;;;5052463;28;20048;-64
2022/11/05 11:30:33;;;;;;;20.05;12.80;;;;;;;;;;5072133;28;20025;-65
2022/11/05 11:33:04;;;;;;;20.67;12.27;;;;;;;;;;5053205;28;20051;-65
2022/11/05 11:35:30;;;;;;;21.50;12.42;;;;;;;;;;4703423;28;10000521;-64
2022/11/05 11:37:59;;;;;;;21.52;13.40;;;;;;;;;;5052608;28;20029;-64
2022/11/05 11:40:25;;;;;;;;;;;;;;;;;;5071946;28;20067;-63
2022/11/05 11:42:56;;;;;;;26.98;13.10;;;;;;;;;;5071752;28;19912;-63
2022/11/05 11:45:33;;;;;;;20.85;12.55;;;;;;;;;;5066306;28;20025;-64
2022/11/05 11:48:01;;;;;;;23.05;13.00;;;;;;;;;;5050975;28;20048;-64
2022/11/05 11:50:30;;;;;;;21.42;13.25;;;;;;;;;;5052992;28;20074;-63
2022/11/05 11:53:15;;;;;;;21.30;13.38;;;;;;;;;;5070347;28;20399;-63
2022/11/05 11:55:55;;;;;;;20.23;12.13;;;;;;;;;;5053499;28;20024;-64
2022/11/05 11:58:34;;;;;;;21.77;12.27;;;;;;;;;;5071658;28;20452;-63
2022/11/05 12:01:20;;;;;;;18.33;11.95;;;;;;;;;;5071908;28;20043;-64
2022/11/05 12:03:46;;;;;;;19.08;11.35;;;;;;;;;;5070623;28;20072;-66
2022/11/05 12:06:20;;;;;;;18.38;11.13;;;;;;;;;;5071176;28;20059;-65
2022/11/05 12:08:53;;;;;;;21.88;11.30;;;;;;;;;;5054008;28;20047;-66
2022/11/05 12:11:29;;;;;;;21.83;11.90;;;;;;;;;;5053363;28;20064;-66
2022/11/05 12:14:03;;;;;;;20.17;11.27;;;;;;;;;;5071267;28;20568;-65
2022/11/05 12:16:48;;;;;;;20.17;11.02;;;;;;;;;;5054327;28;20112;-65
2022/11/05 12:19:23;;;;;;;17.70;10.93;;;;;;;;;;5072211;28;20020;-64
2022/11/05 12:21:49;;;;;;;19.30;10.43;;;;;;;;;;5070427;28;20035;-65
2022/11/05 12:24:15;;;;;;;19.50;10.52;;;;;;;;;;5070819;28;20025;-66
2022/11/05 12:26:50;;;;;;;17.73;9.90;;;;;;;;;;5071912;28;20499;-64
2022/11/05 12:29:22;;;;;;;17.92;10.60;;;;;;;;;;5053697;28;20060;-65
2022/11/05 12:32:04;;;;;;;15.85;10.02;;;;;;;;;;5051802;28;20544;-66
2022/11/05 12:34:33;;;;;;;19.00;10.75;;;;;;;;;;5071043;28;20039;-66
2022/11/05 12:36:59;;;;;;;20.08;10.50;;;;;;;;;;5053308;28;20496;-64
2022/11/05 12:39:37;;;;;;;19.73;10.55;;;;;;;;;;5071479;28;20035;-65
2022/11/05 12:42:06;;;;;;;20.83;10.73;;;;;;;;;;5053386;28;20029;-65
2022/11/05 12:44:38;;;;;;;17.30;9.90;;;;;;;;;;5070748;28;20420;-57
2022/11/05 12:47:22;;;;;;;18.25;9.93;;;;;;;;;;5069669;28;20020;-65
2022/11/05 12:50:00;;;;;;;17.75;10.85;;;;;;;;;;5072558;28;20068;-65
2022/11/05 12:52:32;;;;;;;18.15;10.55;;;;;;;;;;5071459;28;20021;-65
2022/11/05 12:55:18;;;;;;;19.42;10.70;;;;;;;;;;5070646;28;20029;-65
2022/11/05 12:57:46;;;;;;;21.65;11.10;;;;;;;;;;5053294;28;20025;-66
2022/11/05 13:00:12;;;;;;;19.03;9.60;;;;;;;;;;5072076;28;20028;-65
2022/11/05 13:02:47;;;;;;;18.25;10.50;;;;;;;;;;5075305;28;20028;-65
2022/11/05 13:05:16;;;;;;;20.10;10.25;;;;;;;;;;5074764;28;20035;-65
2022/11/05 13:07:51;;;;;;;18.67;10.15;;;;;;;;;;5057510;28;20020;-65
2022/11/05 13:10:36;;;;;;;17.92;9.95;;;;;;;;;;5075281;28;20024;-65
2022/11/05 13:13:06;;;;;;;19.20;9.70;;;;;;;;;;5074807;28;20056;-64
2022/11/05 13:15:38;;;;;;;17.02;9.90;;;;;;;;;;5075007;28;20036;-66
2022/11/05 13:18:06;;;;;;;17.63;9.75;;;;;;;;;;5056729;28;20028;-66
2022/11/05 13:20:33;;;;;;;21.73;10.23;;;;;;;;;;5056485;28;20475;-67
2022/11/05 13:23:02;;;;;;;18.55;9.30;;;;;;;;;;5074191;28;20104;-64
2022/11/05 13:25:30;;;;;;;17.27;9.32;;;;;;;;;;5056429;28;20024;-66
2022/11/05 13:28:17;;;;;;;20.98;9.68;;;;;;;;;;5075165;28;20081;-65
2022/11/05 13:30:45;;;;;;;18.75;9.38;;;;;;;;;;5056959;28;20032;-65
2022/11/05 13:33:14;;;;;;;17.90;9.98;;;;;;;;;;5074351;28;20025;-65
2022/11/05 13:39:02;;;;;;;18.85;9.63;;;;;;;;;;5075189;28;20059;-65
2022/11/05 13:41:31;;;;;;;18.92;9.93;;;;;;;;;;5074816;28;20094;-64
2022/11/05 13:44:00;;;;;;;19.85;9.93;;;;;;;;;;5074317;28;20058;-65
2022/11/05 13:46:29;;;;;;;23.80;10.82;;;;;;;;;;5074409;28;20017;-65
2022/11/05 13:49:06;;;;;;;19.75;10.07;;;;;;;;;;5056614;28;20033;-64
2022/11/05 13:51:51;;;;;;;19.75;10.70;;;;;;;;;;5074245;28;20035;-65
2022/11/05 13:54:17;;;;;;;19.27;9.52;;;;;;;;;;5055462;28;20066;-65
2022/11/05 13:56:43;;;;;;;21.58;10.35;;;;;;;;;;5074392;28;20020;-64
2022/11/05 13:59:18;;;;;;;19.13;10.10;;;;;;;;;;5074108;28;20469;-64
2022/11/05 14:01:47;;;;;;;16.77;10.38;;;;;;;;;;5073330;28;20028;-65
2022/11/05 14:04:24;;;;;;;18.27;10.18;;;;;;;;;;5072998;28;20590;-65
2022/11/05 14:06:50;;;;;;;18.92;11.10;;;;;;;;;;5073842;28;20027;-65
2022/11/05 14:09:19;;;;;;;19.35;10.25;;;;;;;;;;5055265;28;20070;-63
2022/11/05 14:11:54;;;;;;;19.00;10.85;;;;;;;;;;5054243;28;20040;-65
2022/11/05 14:14:22;;;;;;;18.80;10.77;;;;;;;;;;5072868;28;20472;-65
2022/11/05 14:16:50;;;;;;;20.83;11.38;;;;;;;;;;5073405;28;20073;-65
2022/11/05 14:19:20;;;;;;;18.23;10.35;;;;;;;;;;5073166;28;20089;-65
2022/11/05 14:21:49;;;;;;;19.98;10.77;;;;;;;;;;5072642;28;20028;-65
2022/11/05 14:24:24;;;;;;;18.65;11.13;;;;;;;;;;5071788;28;20021;-65
2022/11/05 14:27:02;;;;;;;22.45;11.30;;;;;;;;;;5073245;28;20024;-63
2022/11/05 14:29:37;;;;;;;16.90;10.68;;;;;;;;;;5073811;28;20024;-65
2022/11/05 14:32:23;;;;;;;21.25;10.65;;;;;;;;;;5055298;28;20056;-66
2022/11/05 14:35:02;;;;;;;18.13;9.82;;;;;;;;;;5054866;28;20558;-65
2022/11/05 14:37:30;;;;;;;19.98;9.95;;;;;;;;;;5055482;28;20275;-65
2022/11/05 14:39:59;;;;;;;20.17;10.53;;;;;;;;;;5073168;28;20029;-64
2022/11/05 14:42:29;;;;;;;19.65;10.95;;;;;;;;;;5073135;28;20028;-65
2022/11/05 14:44:55;;;;;;;20.10;10.75;;;;;;;;;;5071680;28;20480;-66
2022/11/05 14:47:24;;;;;;;17.30;10.35;;;;;;;;;;4370557;28;9999989;-66
2022/11/05 14:49:54;;;;;;;19.75;10.35;;;;;;;;;;5070661;28;20036;-66
2022/11/05 14:52:21;;;;;;;18.88;10.68;;;;;;;;;;5070437;28;20037;-65
2022/11/05 14:54:48;;;;;;;19.08;10.45;;;;;;;;;;5069222;28;20124;-65
2022/11/05 14:57:15;;;;;;;18.08;10.57;;;;;;;;;;5070188;28;20056;-66
2022/11/05 14:59:52;;;;;;;18.10;10.80;;;;;;;;;;5052398;28;20033;-65
2022/11/05 15:02:20;;;;;;;22.20;10.98;;;;;;;;;;5070159;28;20103;-65
2022/11/05 15:04:48;;;;;;;19.25;10.05;;;;;;;;;;5071512;28;20028;-63
2022/11/05 15:07:23;;;;;;;22.88;11.73;;;;;;;;;;5054245;28;20024;-65
2022/11/05 15:09:52;;;;;;;21.27;10.45;;;;;;;;;;5071788;28;20031;-65